createdAt,value
2023-02-08T00:01:00.989Z,99527.34
2023-02-08T00:03:36.144Z,99519.38
2023-02-08T00:06:03.260Z,99525.16
2023-02-08T00:08:29.790Z,99510.31
2023-02-08T00:10:58.468Z,99501.50
2023-02-08T00:13:25.241Z,99505.47
2023-02-08T00:15:56.966Z,99504.44
2023-02-08T00:18:25.336Z,99508.09
2023-02-08T00:20:52.309Z,99498.03
2023-02-08T00:23:18.880Z,99496.44
2023-02-08T00:25:45.540Z,99492.19
2023-02-08T00:28:14.643Z,99490.03
2023-02-08T00:30:42.146Z,99494.25
2023-02-08T00:33:11.386Z,99486.06
2023-02-08T00:35:38.189Z,99479.44
2023-02-08T00:38:04.850Z,99478.31
2023-02-08T00:40:33.151Z,99486.31
2023-02-08T00:42:59.681Z,99479.44
2023-02-08T00:45:26.171Z,99483.13
2023-02-08T00:47:54.504Z,99475.09
2023-02-08T00:50:21.001Z,99482.81
2023-02-08T00:52:47.528Z,99474.13
2023-02-08T00:55:23.331Z,99466.22
2023-02-08T00:57:51.745Z,99466.72
2023-02-08T01:00:18.577Z,99456.69
2023-02-08T01:02:45.246Z,99455.63
2023-02-08T01:05:12.160Z,99454.31
2023-02-08T01:07:39.141Z,99446.94
2023-02-08T01:10:10.233Z,99457.03
2023-02-08T01:12:36.769Z,99456.28
2023-02-08T01:15:03.370Z,99455.19
2023-02-08T01:17:42.045Z,99456.81
2023-02-08T01:20:09.777Z,99454.75
2023-02-08T01:22:36.373Z,99475.38
2023-02-08T01:25:04.818Z,99454.69
2023-02-08T01:27:31.634Z,99457.38
2023-02-08T01:29:58.132Z,99451.03
2023-02-08T01:32:24.751Z,99447.53
2023-02-08T01:34:51.237Z,99453.13
2023-02-08T01:37:17.954Z,99443.56
2023-02-08T01:39:44.467Z,99445.63
2023-02-08T01:42:14.845Z,99447.97
2023-02-08T01:45:31.793Z,99436.00
2023-02-08T01:48:19.497Z,99436.53
2023-02-08T01:51:19.609Z,99439.09
2023-02-08T01:53:48.865Z,99439.84
2023-02-08T01:56:23.582Z,99444.28
2023-02-08T01:58:55.125Z,99449.28
2023-02-08T02:01:22.120Z,99447.13
2023-02-08T02:03:48.683Z,99449.53
2023-02-08T02:06:24.369Z,99447.69
2023-02-08T02:09:02.433Z,99435.06
2023-02-08T02:11:29.274Z,99449.59
2023-02-08T02:13:56.225Z,99443.50
2023-02-08T02:16:24.507Z,99443.19
2023-02-08T02:18:51.119Z,99436.78
2023-02-08T02:21:41.445Z,99441.91
2023-02-08T02:24:23.205Z,99433.13
2023-02-08T02:27:14.416Z,99434.44
2023-02-08T02:30:17.275Z,99441.28
2023-02-08T02:33:00.204Z,99442.25
2023-02-08T02:35:39.725Z,99436.16
2023-02-08T02:38:30.689Z,99438.75
2023-02-08T02:41:14.425Z,99441.97
2023-02-08T02:43:54.308Z,99441.34
2023-02-08T02:46:40.418Z,99440.53
2023-02-08T02:49:15.352Z,99438.38
2023-02-08T02:51:50.851Z,99446.31
2023-02-08T02:54:23.738Z,99437.75
2023-02-08T02:56:55.271Z,99432.63
2023-02-08T02:59:23.148Z,99439.94
2023-02-08T03:01:49.842Z,99434.81
2023-02-08T03:04:33.070Z,99436.59
2023-02-08T03:07:15.572Z,99433.56
2023-02-08T03:09:51.324Z,99441.22
2023-02-08T03:12:41.527Z,99440.00
2023-02-08T03:15:32.385Z,99431.84
2023-02-08T03:18:19.327Z,99429.53
2023-02-08T03:21:09.550Z,99438.41
2023-02-08T03:23:54.499Z,99431.09
2023-02-08T03:26:36.770Z,99444.03
2023-02-08T03:29:14.571Z,99441.53
2023-02-08T03:31:49.465Z,99440.09
2023-02-08T03:34:53.259Z,99450.25
2023-02-08T03:37:44.002Z,99437.47
2023-02-08T03:40:37.173Z,99433.94
2023-02-08T03:43:11.448Z,99435.94
2023-02-08T03:45:46.425Z,99435.94
2023-02-08T03:48:16.889Z,99437.84
2023-02-08T03:50:50.409Z,99435.00
2023-02-08T03:53:20.930Z,99432.75
2023-02-08T03:55:52.821Z,99440.09
2023-02-08T03:58:28.386Z,99437.84
2023-02-08T04:01:16.787Z,99422.09
2023-02-08T04:03:46.404Z,99428.50
2023-02-08T04:06:13.116Z,99426.44
2023-02-08T04:08:39.734Z,99423.22
2023-02-08T04:11:06.259Z,99417.47
2023-02-08T04:13:33.094Z,99418.66
2023-02-08T04:16:01.519Z,99432.19
2023-02-08T04:18:28.125Z,99423.56
2023-02-08T04:20:54.603Z,99418.28
2023-02-08T04:23:21.221Z,99409.38
2023-02-08T04:25:47.952Z,99415.72
2023-02-08T04:28:14.453Z,99412.03
2023-02-08T04:30:41.494Z,99403.56
2023-02-08T04:33:08.231Z,99406.97
2023-02-08T04:35:34.996Z,99398.91
2023-02-08T04:38:03.281Z,99404.88
2023-02-08T04:40:29.931Z,99409.06
2023-02-08T04:42:56.445Z,99406.34
2023-02-08T04:45:29.628Z,99399.94
2023-02-08T04:47:57.131Z,99404.59
2023-02-08T04:50:24.333Z,99398.66
2023-02-08T04:52:50.863Z,99406.63
2023-02-08T04:55:19.830Z,99407.69
2023-02-08T04:57:49.859Z,99406.00
2023-02-08T05:00:17.040Z,99402.81
2023-02-08T05:02:43.796Z,99406.97
2023-02-08T05:05:10.345Z,99405.84
2023-02-08T05:07:41.087Z,99405.03
2023-02-08T05:10:08.156Z,99407.69
2023-02-08T05:12:34.640Z,99400.56
2023-02-08T05:15:03.404Z,99398.56
2023-02-08T05:17:29.864Z,99408.91
2023-02-08T05:19:56.364Z,99397.53
2023-02-08T05:22:23.002Z,99409.28
2023-02-08T05:24:49.492Z,99406.34
2023-02-08T05:27:15.973Z,99403.94
2023-02-08T05:29:45.315Z,99407.63
2023-02-08T05:32:12.681Z,99398.00
2023-02-08T05:34:39.292Z,99408.09
2023-02-08T05:37:07.697Z,99410.63
2023-02-08T05:39:34.804Z,99420.41
2023-02-08T05:42:01.303Z,99411.00
2023-02-08T05:44:29.517Z,99417.81
2023-02-08T05:46:56.300Z,99421.97
2023-02-08T05:49:22.964Z,99423.94
2023-02-08T05:51:50.452Z,99426.97
2023-02-08T05:54:17.979Z,99427.34
2023-02-08T05:56:44.484Z,99422.19
2023-02-08T05:59:13.317Z,99425.19
2023-02-08T06:01:40.083Z,99429.25
2023-02-08T06:04:09.055Z,99430.41
2023-02-08T06:06:37.367Z,99430.97
2023-02-08T06:09:05.023Z,99441.78
2023-02-08T06:11:31.536Z,99438.69
2023-02-08T06:13:59.980Z,99445.47
2023-02-08T06:16:29.140Z,99448.00
2023-02-08T06:18:55.679Z,99451.78
2023-02-08T06:21:24.409Z,99457.16
2023-02-08T06:23:51.157Z,99448.44
2023-02-08T06:26:17.643Z,99458.19
2023-02-08T06:28:51.127Z,99456.59
2023-02-08T06:31:19.536Z,99463.47
2023-02-08T06:33:46.054Z,99455.44
2023-02-08T06:36:12.830Z,99458.53
2023-02-08T06:38:39.302Z,99463.47
2023-02-08T06:41:06.020Z,99452.00
2023-02-08T06:43:34.286Z,99456.25
2023-02-08T06:46:00.925Z,99459.13
2023-02-08T06:48:27.540Z,99461.41
2023-02-08T06:50:55.357Z,99468.16
2023-02-08T06:53:26.418Z,99467.16
2023-02-08T06:55:52.938Z,99471.41
2023-02-08T06:58:20.175Z,99470.25
2023-02-08T07:00:46.751Z,99468.88
2023-02-08T07:03:15.360Z,99465.66
2023-02-08T07:05:49.458Z,99466.69
2023-02-08T07:08:21.833Z,99474.94
2023-02-08T07:10:56.049Z,99474.13
2023-02-08T07:13:22.601Z,99475.28
2023-02-08T07:15:49.129Z,99467.72
2023-02-08T07:18:17.421Z,99472.34
2023-02-08T07:20:43.883Z,99467.94
2023-02-08T07:23:10.444Z,99467.97
2023-02-08T07:25:36.996Z,99472.59
2023-02-08T07:28:03.900Z,99473.25
2023-02-08T07:30:30.619Z,99473.03
2023-02-08T07:32:57.301Z,99479.38
2023-02-08T07:35:23.990Z,99481.84
2023-02-08T07:37:50.442Z,99477.38
2023-02-08T07:40:17.254Z,99485.38
2023-02-08T07:42:47.536Z,99470.44
2023-02-08T07:45:14.055Z,99476.69
2023-02-08T07:47:42.265Z,99473.00
2023-02-08T07:50:08.923Z,99482.78
2023-02-08T07:52:35.368Z,99482.09
2023-02-08T07:55:05.717Z,99482.44
2023-02-08T07:57:32.326Z,99472.06
2023-02-08T07:59:58.788Z,99484.75
2023-02-08T08:02:25.317Z,99484.31
2023-02-08T08:04:54.149Z,99486.13
2023-02-08T08:07:20.708Z,99494.44
2023-02-08T08:09:49.343Z,99497.81
2023-02-08T08:12:15.810Z,99501.13
2023-02-08T08:14:42.273Z,99502.50
2023-02-08T08:17:08.921Z,99505.56
2023-02-08T08:19:35.460Z,99496.50
2023-02-08T08:22:01.969Z,99502.50
2023-02-08T08:24:28.557Z,99500.22
2023-02-08T08:26:55.088Z,99496.56
2023-02-08T08:29:21.650Z,99501.19
2023-02-08T08:31:50.399Z,99508.63
2023-02-08T08:34:16.912Z,99501.28
2023-02-08T08:36:43.420Z,99501.78
2023-02-08T08:39:10.136Z,99495.00
2023-02-08T08:41:38.920Z,99495.13
2023-02-08T08:44:05.686Z,99491.72
2023-02-08T08:46:34.464Z,99490.28
2023-02-08T08:49:01.016Z,99489.19
2023-02-08T08:51:27.496Z,99492.28
2023-02-08T08:54:03.998Z,99483.19
2023-02-08T08:56:30.738Z,99484.69
2023-02-08T08:58:57.477Z,99480.81
2023-02-08T09:01:26.634Z,99489.44
2023-02-08T09:03:53.185Z,99491.28
2023-02-08T09:06:21.943Z,99484.31
2023-02-08T09:08:54.805Z,99481.13
2023-02-08T09:11:21.272Z,99484.78
2023-02-08T09:13:51.371Z,99492.56
2023-02-08T09:16:20.703Z,99482.47
2023-02-08T09:18:47.328Z,99487.31
2023-02-08T09:21:20.177Z,99480.41
2023-02-08T09:23:50.093Z,99481.03
2023-02-08T09:26:18.564Z,99477.94
2023-02-08T09:28:45.722Z,99474.56
2023-02-08T09:31:20.627Z,99459.84
2023-02-08T09:33:51.842Z,99463.53
2023-02-08T09:36:27.670Z,99474.72
2023-02-08T09:39:00.260Z,99465.03
2023-02-08T09:41:38.931Z,99459.53
2023-02-08T09:44:28.714Z,99461.03
2023-02-08T09:47:34.682Z,99465.03
2023-02-08T09:50:15.646Z,99469.13
2023-02-08T09:52:59.699Z,99469.84
2023-02-08T09:55:36.806Z,99457.47
2023-02-08T09:58:17.692Z,99465.59
2023-02-08T10:00:47.636Z,99456.63
2023-02-08T10:03:27.692Z,99461.53
2023-02-08T10:05:54.801Z,99459.03
2023-02-08T10:08:25.237Z,99462.44
2023-02-08T10:11:02.516Z,99458.63
2023-02-08T10:13:41.003Z,99464.13
2023-02-08T10:16:39.856Z,99456.28
2023-02-08T10:19:37.539Z,99467.41
2023-02-08T10:22:21.732Z,99463.72
2023-02-08T10:24:51.305Z,99464.78
2023-02-08T10:27:31.705Z,99459.63
2023-02-08T10:30:27.494Z,99462.75
2023-02-08T10:33:12.872Z,99457.06
2023-02-08T10:35:44.806Z,99447.31
2023-02-08T10:38:29.679Z,99444.03
2023-02-08T10:41:02.787Z,99443.75
2023-02-08T10:43:34.279Z,99436.38
2023-02-08T10:46:00.753Z,99436.75
2023-02-08T10:48:47.736Z,99443.22
2023-02-08T10:51:21.373Z,99439.63
2023-02-08T10:53:50.489Z,99440.91
2023-02-08T10:56:57.578Z,99435.97
2023-02-08T10:59:32.811Z,99445.16
2023-02-08T11:01:59.915Z,99440.84
2023-02-08T11:04:26.603Z,99438.44
2023-02-08T11:06:55.036Z,99434.75
2023-02-08T11:09:27.509Z,99432.66
2023-02-08T11:11:54.541Z,99424.00
2023-02-08T11:14:46.138Z,99421.63
2023-02-08T11:17:28.841Z,99418.03
2023-02-08T11:19:57.380Z,99424.06
2023-02-08T11:22:27.136Z,99419.09
2023-02-08T11:25:09.809Z,99417.44
2023-02-08T11:27:45.046Z,99419.66
2023-02-08T11:30:18.904Z,99412.53
2023-02-08T11:32:47.823Z,99404.38
2023-02-08T11:35:25.901Z,99407.31
2023-02-08T11:37:53.639Z,99415.03
2023-02-08T11:40:33.662Z,99409.16
2023-02-08T11:43:01.096Z,99395.75
2023-02-08T11:45:33.185Z,99391.81
2023-02-08T11:48:01.850Z,99399.31
2023-02-08T11:50:37.636Z,99398.00
2023-02-08T11:53:08.513Z,99397.09
2023-02-08T11:55:35.376Z,99386.75
2023-02-08T11:58:17.425Z,99384.66
2023-02-08T12:00:58.959Z,99392.63
2023-02-08T12:03:33.319Z,99382.78
2023-02-08T12:06:22.016Z,99384.94
2023-02-08T12:09:26.841Z,99374.28
2023-02-08T12:12:14.497Z,99380.47
2023-02-08T12:15:07.563Z,99377.25
2023-02-08T12:17:55.918Z,99376.22
2023-02-08T12:20:45.393Z,99365.13
2023-02-08T12:23:43.238Z,99369.22
2023-02-08T12:26:18.069Z,99363.47
2023-02-08T12:29:04.759Z,99368.63
2023-02-08T12:31:49.834Z,99358.84
2023-02-08T12:34:35.716Z,99355.47
2023-02-08T12:37:22.287Z,99355.38
2023-02-08T12:40:15.843Z,99345.50
2023-02-08T12:42:58.486Z,99346.69
2023-02-08T12:45:44.006Z,99341.66
2023-02-08T12:48:50.729Z,99341.22
2023-02-08T12:51:58.527Z,99337.84
2023-02-08T12:54:41.343Z,99328.81
2023-02-08T12:57:13.945Z,99328.13
2023-02-08T12:59:46.593Z,99336.34
2023-02-08T13:02:29.722Z,99328.59
2023-02-08T13:05:00.940Z,99335.41
2023-02-08T13:07:35.643Z,99320.78
2023-02-08T13:10:28.259Z,99316.81
2023-02-08T13:12:58.778Z,99315.28
2023-02-08T13:15:32.649Z,99313.00
2023-02-08T13:18:12.766Z,99314.38
2023-02-08T13:20:57.087Z,99320.63
2023-02-08T13:23:28.517Z,99319.41
2023-02-08T13:26:02.846Z,99308.63
2023-02-08T13:28:29.711Z,99298.50
2023-02-08T13:31:07.917Z,99297.72
2023-02-08T13:33:59.332Z,99291.75
2023-02-08T13:36:32.735Z,99299.00
2023-02-08T13:39:00.958Z,99295.63
2023-02-08T13:41:31.069Z,99299.69
2023-02-08T13:44:24.148Z,99294.56
2023-02-08T13:46:51.328Z,99299.34
2023-02-08T13:49:57.179Z,99295.69
2023-02-08T13:52:47.552Z,99292.59
2023-02-08T13:55:36.491Z,99287.47
2023-02-08T13:58:16.053Z,99293.41
2023-02-08T14:00:57.650Z,99297.16
2023-02-08T14:03:29.503Z,99301.00
2023-02-08T14:06:19.425Z,99312.25
2023-02-08T14:09:01.704Z,99302.94
2023-02-08T14:11:28.326Z,99306.00
2023-02-08T14:14:00.935Z,99308.28
2023-02-08T14:16:37.624Z,99304.31
2023-02-08T14:19:23.205Z,99305.63
2023-02-08T14:22:04.566Z,99294.91
2023-02-08T14:25:08.099Z,99303.88
2023-02-08T14:27:42.580Z,99307.72
2023-02-08T14:30:18.083Z,99299.25
2023-02-08T14:32:49.545Z,99310.00
2023-02-08T14:35:20.644Z,99304.63
2023-02-08T14:37:49.610Z,99302.16
2023-02-08T14:40:31.457Z,99304.81
2023-02-08T14:42:58.973Z,99309.59
2023-02-08T14:45:38.725Z,99305.13
2023-02-08T14:48:28.476Z,99309.78
2023-02-08T14:51:10.491Z,99312.22
2023-02-08T14:53:43.718Z,99320.13
2023-02-08T14:56:10.231Z,99313.47
2023-02-08T14:58:40.966Z,99312.84
2023-02-08T15:01:19.684Z,99312.16
2023-02-08T15:03:50.088Z,99309.69
2023-02-08T15:06:41.725Z,99307.97
2023-02-08T15:09:25.720Z,99315.81
2023-02-08T15:12:05.715Z,99316.94
2023-02-08T15:14:35.413Z,99316.44
2023-02-08T15:17:02.452Z,99320.81
2023-02-08T15:19:34.356Z,99318.22
2023-02-08T15:22:17.992Z,99313.63
2023-02-08T15:24:56.263Z,99309.44
2023-02-08T15:27:26.779Z,99314.47
2023-02-08T15:29:53.577Z,99310.63
2023-02-08T15:32:23.810Z,99302.97
2023-02-08T15:34:54.913Z,99308.31
2023-02-08T15:37:21.799Z,99306.97
2023-02-08T15:39:55.005Z,99307.78
2023-02-08T15:42:29.031Z,99314.75
2023-02-08T15:44:56.146Z,99309.03
2023-02-08T15:47:31.657Z,99313.41
2023-02-08T15:50:03.715Z,99315.53
2023-02-08T15:52:35.271Z,99319.88
2023-02-08T15:55:02.282Z,99319.66
2023-02-08T15:58:09.561Z,99320.81
2023-02-08T16:00:37.694Z,99315.06
2023-02-08T16:03:17.725Z,99329.47
2023-02-08T16:05:50.666Z,99331.38
2023-02-08T16:08:29.739Z,99330.31
2023-02-08T16:11:00.545Z,99334.09
2023-02-08T16:13:35.812Z,99328.75
2023-02-08T16:16:26.515Z,99325.63
2023-02-08T16:19:01.826Z,99337.06
2023-02-08T16:21:34.484Z,99330.41
2023-02-08T16:24:11.216Z,99341.59
2023-02-08T16:26:44.246Z,99336.56
2023-02-08T16:29:24.915Z,99341.88
2023-02-08T16:32:03.421Z,99340.84
2023-02-08T16:37:30.747Z,99341.09
2023-02-08T16:39:59.597Z,99342.44
2023-02-08T16:42:33.944Z,99347.97
2023-02-08T16:45:08.273Z,99339.47
2023-02-08T16:47:36.879Z,99342.09
2023-02-08T16:50:09.549Z,99344.22
2023-02-08T16:52:36.606Z,99346.59
2023-02-08T16:55:09.960Z,99345.25
2023-02-08T16:57:52.571Z,99341.47
2023-02-08T17:00:33.164Z,99341.97
2023-02-08T17:03:00.140Z,99347.78
2023-02-08T17:05:42.201Z,99349.88
2023-02-08T17:08:14.870Z,99355.13
2023-02-08T17:10:43.405Z,99357.72
2023-02-08T17:13:20.480Z,99353.94
2023-02-08T17:15:50.692Z,99354.91
2023-02-08T17:18:19.485Z,99356.75
2023-02-08T17:20:46.950Z,99354.88
2023-02-08T17:23:15.498Z,99356.47
2023-02-08T17:25:43.526Z,99352.78
2023-02-08T17:28:21.060Z,99350.38
2023-02-08T17:30:51.856Z,99353.31
2023-02-08T17:33:19.116Z,99359.47
2023-02-08T17:35:48.825Z,99360.75
2023-02-08T17:38:17.390Z,99357.06
2023-02-08T17:40:44.667Z,99352.78
2023-02-08T17:43:12.565Z,99362.50
2023-02-08T17:45:44.824Z,99359.53
2023-02-08T17:48:13.549Z,99357.84
2023-02-08T17:50:48.066Z,99360.72
2023-02-08T17:53:17.904Z,99363.31
2023-02-08T17:55:45.873Z,99359.28
2023-02-08T17:58:13.346Z,99359.78
2023-02-08T18:00:40.677Z,99358.69
2023-02-08T18:03:07.219Z,99356.28
2023-02-08T18:05:36.941Z,99364.94
2023-02-08T18:08:03.578Z,99359.56
2023-02-08T18:10:30.092Z,99360.00
2023-02-08T18:12:56.680Z,99365.81
2023-02-08T18:15:24.201Z,99360.13
2023-02-08T18:17:50.972Z,99366.16
2023-02-08T18:20:18.682Z,99363.53
2023-02-08T18:22:48.005Z,99362.78
2023-02-08T18:25:16.042Z,99359.59
2023-02-08T18:27:44.342Z,99358.28
2023-02-08T18:30:12.311Z,99361.97
2023-02-08T18:32:39.584Z,99357.47
2023-02-08T18:35:07.631Z,99362.16
2023-02-08T18:37:36.993Z,99362.97
2023-02-08T18:40:05.534Z,99364.22
2023-02-08T18:42:35.705Z,99365.72
2023-02-08T18:45:02.558Z,99362.41
2023-02-08T18:47:29.009Z,99363.25
2023-02-08T18:49:56.258Z,99354.44
2023-02-08T18:52:23.813Z,99355.47
2023-02-08T18:54:50.588Z,99359.97
2023-02-08T18:57:19.437Z,99360.22
2023-02-08T18:59:45.946Z,99352.22
2023-02-08T19:02:19.619Z,99359.03
2023-02-08T19:04:48.069Z,99362.31
2023-02-08T19:07:14.908Z,99360.69
2023-02-08T19:09:41.436Z,99358.78
2023-02-08T19:12:21.633Z,99352.63
2023-02-08T19:14:51.206Z,99357.13
2023-02-08T19:17:18.340Z,99355.44
2023-02-08T19:19:45.359Z,99358.59
2023-02-08T19:22:12.196Z,99353.25
2023-02-08T19:24:38.895Z,99361.00
2023-02-08T19:27:05.644Z,99365.41
2023-02-08T19:29:34.413Z,99360.06
2023-02-08T19:32:01.084Z,99363.19
2023-02-08T19:34:29.385Z,99361.59
2023-02-08T19:36:55.841Z,99356.56
2023-02-08T19:39:25.708Z,99358.56
2023-02-08T19:42:04.974Z,99352.72
2023-02-08T19:44:31.550Z,99348.94
2023-02-08T19:46:59.008Z,99346.06
2023-02-08T19:49:26.254Z,99338.13
2023-02-08T19:51:52.883Z,99333.41
2023-02-08T19:54:19.944Z,99335.41
2023-02-08T19:56:47.342Z,99333.72
2023-02-08T19:59:20.188Z,99328.94
2023-02-08T20:01:52.290Z,99328.31
2023-02-08T20:04:19.566Z,99325.56
2023-02-08T20:06:46.306Z,99329.28
2023-02-08T20:09:22.419Z,99326.06
2023-02-08T20:11:56.935Z,99328.41
2023-02-08T20:14:27.261Z,99326.00
2023-02-08T20:16:54.001Z,99324.38
2023-02-08T20:19:20.738Z,99326.78
2023-02-08T20:21:47.341Z,99323.56
2023-02-08T20:24:14.111Z,99319.00
2023-02-08T20:26:44.151Z,99322.25
2023-02-08T20:29:11.937Z,99329.59
2023-02-08T20:31:48.189Z,99326.47
2023-02-08T20:34:16.922Z,99327.97
2023-02-08T20:36:47.719Z,99323.75
2023-02-08T20:39:19.392Z,99327.19
2023-02-08T20:41:47.493Z,99326.31
2023-02-08T20:44:18.671Z,99334.25
2023-02-08T20:46:46.914Z,99332.19
2023-02-08T20:49:15.391Z,99335.69
2023-02-08T20:51:50.165Z,99331.28
2023-02-08T20:54:18.104Z,99331.03
2023-02-08T20:56:44.604Z,99332.31
2023-02-08T20:59:13.991Z,99326.22
2023-02-08T21:01:40.781Z,99324.78
2023-02-08T21:04:07.373Z,99329.53
2023-02-08T21:06:36.278Z,99325.75
2023-02-08T21:09:09.148Z,99327.81
2023-02-08T21:11:35.789Z,99338.41
2023-02-08T21:14:03.857Z,99332.81
2023-02-08T21:16:31.128Z,99335.66
2023-02-08T21:18:58.533Z,99333.25
2023-02-08T21:21:28.137Z,99335.66
2023-02-08T21:23:57.912Z,99333.03
2023-02-08T21:26:25.587Z,99337.75
2023-02-08T21:28:54.427Z,99341.44
2023-02-08T21:31:22.919Z,99341.44
2023-02-08T21:33:50.977Z,99336.09
2023-02-08T21:36:22.531Z,99330.81
2023-02-08T21:38:49.449Z,99343.28
2023-02-08T21:41:20.554Z,99333.75
2023-02-08T21:43:47.771Z,99337.91
2023-02-08T21:46:14.828Z,99339.63
2023-02-08T21:49:02.880Z,99340.94
2023-02-08T21:51:48.059Z,99347.47
2023-02-08T21:54:29.919Z,99345.69
2023-02-08T21:56:59.438Z,99338.88
2023-02-08T21:59:26.196Z,99342.41
2023-02-08T22:01:53.000Z,99350.88
2023-02-08T22:04:21.901Z,99340.81
2023-02-08T22:06:52.107Z,99334.47
2023-02-08T22:09:20.497Z,99333.19
2023-02-08T22:11:51.328Z,99332.06
2023-02-08T22:14:18.165Z,99334.38
2023-02-08T22:16:46.393Z,99335.69
2023-02-08T22:19:12.857Z,99335.38
2023-02-08T22:21:39.353Z,99323.19
2023-02-08T22:24:10.598Z,99325.19
2023-02-08T22:26:37.091Z,99327.19
2023-02-08T22:29:03.586Z,99325.91
2023-02-08T22:31:32.456Z,99326.22
2023-02-08T22:33:59.012Z,99323.56
2023-02-08T22:36:25.769Z,99320.88
2023-02-08T22:38:54.453Z,99319.25
2023-02-08T22:41:20.968Z,99316.31
2023-02-08T22:43:48.508Z,99314.84
2023-02-08T22:46:19.897Z,99311.31
2023-02-08T22:48:46.463Z,99316.69
2023-02-08T22:51:18.308Z,99316.94
2023-02-08T22:53:45.071Z,99317.88
2023-02-08T22:56:14.963Z,99330.84
2023-02-08T22:58:41.781Z,99325.56
2023-02-08T23:01:15.514Z,99332.16
2023-02-08T23:03:43.083Z,99330.81
2023-02-08T23:06:12.456Z,99328.69
2023-02-08T23:08:40.676Z,99322.38
2023-02-08T23:11:11.209Z,99334.00
2023-02-08T23:13:37.916Z,99328.16
2023-02-08T23:16:04.889Z,99323.13
2023-02-08T23:18:31.433Z,99329.44
2023-02-08T23:20:58.066Z,99324.69
2023-02-08T23:23:31.131Z,99321.75
2023-02-08T23:25:57.575Z,99327.34
2023-02-08T23:28:24.152Z,99326.63
2023-02-08T23:30:58.720Z,99326.00
2023-02-08T23:33:28.623Z,99326.38
2023-02-08T23:35:55.080Z,99322.44
2023-02-08T23:38:21.761Z,99323.59
2023-02-08T23:40:48.245Z,99311.13
2023-02-08T23:43:14.748Z,99308.53
2023-02-08T23:45:43.479Z,99318.06
2023-02-08T23:48:09.955Z,99316.03
2023-02-08T23:50:36.824Z,99307.84
2023-02-08T23:53:03.439Z,99309.47
2023-02-08T23:55:30.792Z,99313.09
2023-02-08T23:57:57.485Z,99307.00
